createdAt,value
2019-01-31T00:02:44.010Z,6.90
2019-01-31T00:05:29.607Z,5.57
2019-01-31T00:08:45.913Z,3.30
2019-01-31T00:11:38.556Z,4.70
2019-01-31T00:14:37.901Z,3.17
2019-01-31T00:17:45.142Z,4.03
2019-01-31T00:21:03.398Z,4.30
2019-01-31T00:24:18.418Z,4.97
2019-01-31T00:27:34.964Z,3.00
2019-01-31T00:30:29.032Z,2.97
2019-01-31T00:33:26.023Z,3.10
2019-01-31T00:36:39.982Z,2.87
2019-01-31T00:39:42.617Z,3.07
2019-01-31T00:42:39.587Z,2.87
2019-01-31T00:45:47.334Z,3.43
2019-01-31T00:48:54.218Z,2.57
2019-01-31T00:52:10.795Z,3.60
2019-01-31T00:55:07.302Z,3.10
2019-01-31T00:58:20.411Z,5.93
2019-01-31T01:01:28.058Z,3.13
2019-01-31T01:04:11.274Z,3.70
2019-01-31T01:07:21.875Z,3.53
2019-01-31T01:10:23.151Z,2.90
2019-01-31T01:13:29.538Z,3.27
2019-01-31T01:16:28.905Z,3.20
2019-01-31T01:19:39.227Z,3.43
2019-01-31T01:22:35.531Z,3.07
2019-01-31T01:25:18.723Z,3.63
2019-01-31T01:28:13.161Z,3.00
2019-01-31T01:31:19.000Z,3.63
2019-01-31T01:33:56.464Z,6.97
2019-01-31T01:36:54.261Z,3.43
2019-01-31T01:40:04.962Z,2.70
2019-01-31T01:43:18.265Z,2.83
2019-01-31T01:46:20.744Z,7.27
2019-01-31T01:49:21.302Z,4.20
2019-01-31T01:52:27.450Z,5.93
2019-01-31T01:55:12.443Z,4.63
2019-01-31T01:57:53.884Z,4.13
2019-01-31T02:00:39.096Z,4.87
2019-01-31T02:03:30.408Z,3.43
2019-01-31T02:06:26.188Z,4.10
2019-01-31T02:09:11.238Z,5.67
2019-01-31T02:12:04.310Z,2.93
2019-01-31T02:15:32.794Z,3.07
2019-01-31T02:18:11.184Z,3.13
2019-01-31T02:21:17.462Z,4.40
2019-01-31T02:24:21.235Z,3.57
2019-01-31T02:27:24.666Z,3.90
2019-01-31T02:30:26.753Z,3.83
2019-01-31T02:33:51.090Z,4.23
2019-01-31T02:36:40.805Z,3.93
2019-01-31T02:39:43.296Z,6.07
2019-01-31T02:42:32.480Z,5.13
2019-01-31T02:45:31.594Z,5.53
2019-01-31T02:48:25.495Z,5.10
2019-01-31T02:51:53.869Z,3.53
2019-01-31T02:54:57.838Z,3.43
2019-01-31T02:58:13.024Z,3.40
2019-01-31T03:01:19.363Z,4.37
2019-01-31T03:04:15.154Z,2.83
2019-01-31T03:07:10.860Z,4.27
2019-01-31T03:10:45.390Z,3.23
2019-01-31T03:13:48.447Z,3.37
2019-01-31T03:17:03.850Z,3.77
2019-01-31T03:19:55.661Z,3.33
2019-01-31T03:22:46.707Z,4.20
2019-01-31T03:25:48.019Z,3.50
2019-01-31T03:28:50.842Z,6.73
2019-01-31T03:32:13.395Z,4.80
2019-01-31T03:35:10.142Z,4.60
2019-01-31T03:38:09.821Z,4.70
2019-01-31T03:41:13.755Z,7.27
2019-01-31T03:44:01.194Z,5.57
2019-01-31T03:47:29.678Z,6.17
2019-01-31T03:50:14.323Z,6.77
2019-01-31T03:53:39.563Z,23.63
2019-01-31T03:56:56.875Z,7.67
2019-01-31T04:00:01.158Z,7.73
2019-01-31T04:03:01.499Z,5.40
2019-01-31T04:06:01.292Z,4.40
2019-01-31T04:08:30.842Z,6.43
2019-01-31T04:11:00.548Z,4.20
2019-01-31T04:13:30.078Z,3.40
2019-01-31T04:15:59.657Z,3.50
2019-01-31T04:18:29.266Z,3.33
2019-01-31T04:20:58.863Z,3.17
2019-01-31T04:23:28.413Z,3.30
2019-01-31T04:26:00.344Z,3.80
2019-01-31T04:28:30.793Z,3.77
2019-01-31T04:31:00.585Z,3.63
2019-01-31T04:33:30.067Z,3.00
2019-01-31T04:35:59.644Z,4.17
2019-01-31T04:38:29.188Z,3.43
2019-01-31T04:40:58.793Z,4.30
2019-01-31T04:43:28.340Z,4.47
2019-01-31T04:45:57.927Z,4.27
2019-01-31T04:48:27.547Z,14.47
2019-01-31T04:50:57.183Z,15.07
2019-01-31T04:53:26.758Z,11.13
2019-01-31T04:55:56.376Z,9.33
2019-01-31T04:58:25.967Z,11.40
2019-01-31T05:00:55.585Z,6.33
2019-01-31T05:03:25.127Z,7.90
2019-01-31T05:05:54.746Z,5.30
2019-01-31T05:08:24.305Z,6.53
2019-01-31T05:10:53.909Z,5.87
2019-01-31T05:13:23.483Z,7.07
2019-01-31T05:15:53.068Z,5.47
2019-01-31T05:18:22.600Z,6.50
2019-01-31T05:20:52.244Z,6.20
2019-01-31T05:23:21.815Z,6.30
2019-01-31T05:25:51.493Z,5.53
2019-01-31T05:28:21.026Z,5.70
2019-01-31T05:30:50.669Z,6.17
2019-01-31T05:33:20.328Z,4.60
2019-01-31T05:35:50.179Z,4.60
2019-01-31T05:38:21.834Z,4.43
2019-01-31T05:40:55.568Z,4.90
2019-01-31T05:43:22.662Z,5.33
2019-01-31T05:45:52.343Z,4.00
2019-01-31T05:48:22.112Z,4.97
2019-01-31T05:50:51.695Z,4.33
2019-01-31T05:55:56.689Z,4.37
2019-01-31T05:58:26.221Z,5.60
2019-01-31T06:00:55.776Z,4.70
2019-01-31T06:03:25.392Z,4.07
2019-01-31T06:05:55.094Z,4.03
2019-01-31T06:08:44.007Z,4.40
2019-01-31T06:11:13.674Z,7.10
2019-01-31T06:13:43.239Z,11.97
2019-01-31T06:16:12.846Z,7.27
2019-01-31T06:18:42.354Z,6.47
2019-01-31T06:21:11.921Z,5.10
2019-01-31T06:23:41.500Z,4.53
2019-01-31T06:26:11.080Z,4.70
2019-01-31T06:28:40.618Z,5.23
2019-01-31T06:31:10.195Z,4.03
2019-01-31T06:33:39.784Z,3.43
2019-01-31T06:36:09.356Z,3.83
2019-01-31T06:38:38.898Z,3.97
2019-01-31T06:41:18.335Z,3.97
2019-01-31T06:43:39.747Z,4.57
2019-01-31T06:46:09.323Z,4.63
2019-01-31T06:48:38.875Z,7.67
2019-01-31T06:51:08.399Z,6.67
2019-01-31T06:53:37.972Z,4.40
2019-01-31T06:56:07.523Z,3.97
2019-01-31T06:58:37.075Z,4.83
2019-01-31T07:01:06.755Z,3.93
2019-01-31T07:03:36.407Z,4.27
2019-01-31T07:06:05.990Z,4.10
2019-01-31T07:08:35.558Z,5.50
2019-01-31T07:11:05.224Z,4.50
2019-01-31T07:13:34.933Z,4.40
2019-01-31T07:16:04.770Z,5.00
2019-01-31T07:18:34.316Z,5.63
2019-01-31T07:21:03.878Z,6.70
2019-01-31T07:23:33.429Z,5.67
2019-01-31T07:26:03.035Z,5.87
2019-01-31T07:28:32.622Z,5.57
2019-01-31T07:31:02.149Z,6.30
2019-01-31T07:33:31.759Z,6.10
2019-01-31T07:36:01.298Z,6.13
2019-01-31T07:38:30.838Z,6.47
2019-01-31T07:41:00.427Z,5.90
2019-01-31T07:43:30.033Z,5.27
2019-01-31T07:45:59.677Z,5.93
2019-01-31T07:48:29.331Z,6.53
2019-01-31T07:50:58.868Z,6.00
2019-01-31T07:53:28.461Z,6.83
2019-01-31T07:55:57.993Z,5.23
2019-01-31T07:58:27.580Z,5.03
2019-01-31T08:00:57.211Z,8.17
2019-01-31T08:03:26.886Z,5.53
2019-01-31T08:05:56.503Z,10.33
2019-01-31T08:08:26.074Z,6.50
2019-01-31T08:10:55.628Z,7.13
2019-01-31T08:16:00.575Z,5.13
2019-01-31T08:18:30.172Z,6.10
2019-01-31T08:20:59.696Z,5.60
2019-01-31T08:23:29.251Z,5.73
2019-01-31T08:25:58.832Z,5.97
2019-01-31T08:28:28.384Z,5.37
2019-01-31T08:30:57.968Z,4.90
2019-01-31T08:33:28.476Z,5.87
2019-01-31T08:35:58.215Z,5.57
2019-01-31T08:38:27.766Z,3.83
2019-01-31T08:40:57.332Z,8.53
2019-01-31T08:43:26.979Z,6.20
2019-01-31T08:45:56.562Z,6.87
2019-01-31T08:48:26.143Z,4.80
2019-01-31T08:50:55.712Z,3.80
2019-01-31T08:53:25.386Z,4.37
2019-01-31T08:55:55.043Z,3.87
2019-01-31T08:58:24.684Z,5.67
2019-01-31T09:00:54.276Z,5.77
2019-01-31T09:03:23.833Z,5.13
2019-01-31T09:05:53.398Z,4.70
2019-01-31T09:08:22.979Z,4.63
2019-01-31T09:10:52.541Z,5.30
2019-01-31T09:13:22.084Z,3.53
2019-01-31T09:15:51.655Z,4.20
2019-01-31T09:18:21.211Z,4.30
2019-01-31T09:21:14.481Z,4.17
2019-01-31T09:24:25.076Z,3.97
2019-01-31T09:27:26.849Z,4.33
2019-01-31T09:30:30.842Z,5.00
2019-01-31T09:33:38.562Z,3.73
2019-01-31T09:36:57.828Z,3.83
2019-01-31T09:40:06.283Z,3.80
2019-01-31T09:43:07.039Z,3.20
2019-01-31T09:46:20.833Z,3.80
2019-01-31T09:49:24.273Z,3.30
2019-01-31T09:52:54.505Z,3.57
2019-01-31T09:56:07.938Z,3.43
2019-01-31T09:59:28.280Z,4.00
2019-01-31T10:02:40.587Z,3.30
2019-01-31T10:06:00.514Z,3.70
2019-01-31T10:08:53.816Z,4.30
2019-01-31T10:12:16.610Z,3.60
2019-01-31T10:15:31.832Z,4.40
2019-01-31T10:18:34.019Z,5.17
2019-01-31T10:21:24.817Z,3.03
2019-01-31T10:24:28.680Z,3.53
2019-01-31T10:27:48.178Z,3.13
2019-01-31T10:30:39.271Z,3.83
2019-01-31T10:33:29.998Z,3.30
2019-01-31T10:36:35.196Z,2.70
2019-01-31T10:39:13.102Z,4.40
2019-01-31T10:41:58.771Z,2.43
2019-01-31T10:45:00.819Z,3.53
2019-01-31T10:48:26.047Z,3.77
2019-01-31T10:51:28.403Z,3.00
2019-01-31T10:54:07.191Z,4.67
2019-01-31T10:57:16.381Z,3.23
2019-01-31T11:00:35.656Z,2.40
2019-01-31T11:03:40.677Z,2.27
2019-01-31T11:06:49.648Z,2.50
2019-01-31T11:10:15.532Z,5.63
2019-01-31T11:13:15.454Z,3.33
2019-01-31T11:16:40.648Z,3.60
2019-01-31T11:19:29.440Z,3.67
2019-01-31T11:22:39.421Z,1.80
2019-01-31T11:25:39.519Z,2.90
2019-01-31T11:28:31.335Z,3.07
2019-01-31T11:31:59.742Z,3.53
2019-01-31T11:35:22.348Z,3.97
2019-01-31T11:38:13.000Z,2.93
2019-01-31T11:40:54.440Z,4.03
2019-01-31T11:43:58.632Z,3.10
2019-01-31T11:47:18.263Z,2.13
2019-01-31T11:50:23.592Z,2.53
2019-01-31T11:53:18.241Z,1.93
2019-01-31T11:56:12.076Z,3.00
2019-01-31T11:59:03.444Z,2.33
2019-01-31T12:01:33.276Z,2.33
2019-01-31T12:04:11.459Z,2.50
2019-01-31T12:06:40.985Z,2.10
2019-01-31T12:09:13.634Z,4.43
2019-01-31T12:11:43.154Z,2.23
2019-01-31T12:14:12.712Z,4.40
2019-01-31T12:16:42.324Z,3.13
2019-01-31T12:19:11.963Z,1.33
2019-01-31T12:21:41.625Z,3.57
2019-01-31T12:24:16.423Z,1.93
2019-01-31T12:26:42.621Z,1.83
2019-01-31T12:29:12.203Z,4.20
2019-01-31T12:31:41.887Z,1.20
2019-01-31T12:34:11.473Z,1.60
2019-01-31T12:36:40.981Z,2.40
2019-01-31T12:39:11.751Z,2.60
2019-01-31T12:41:41.261Z,2.20
2019-01-31T12:44:11.016Z,1.77
2019-01-31T12:46:40.591Z,2.63
2019-01-31T12:49:10.095Z,4.27
2019-01-31T12:51:39.763Z,1.83
2019-01-31T12:54:09.334Z,1.97
2019-01-31T12:56:38.929Z,1.70
2019-01-31T12:59:08.450Z,4.40
2019-01-31T13:01:38.123Z,2.63
2019-01-31T13:04:07.621Z,2.03
2019-01-31T13:06:37.141Z,4.07
2019-01-31T13:09:14.452Z,2.67
2019-01-31T13:11:44.547Z,0.93
2019-01-31T13:14:14.130Z,1.00
2019-01-31T13:16:43.680Z,2.73
2019-01-31T13:19:13.307Z,1.67
2019-01-31T13:21:42.810Z,2.87
2019-01-31T13:24:12.379Z,1.50
2019-01-31T13:26:41.913Z,2.53
2019-01-31T13:29:11.471Z,3.73
2019-01-31T13:31:40.981Z,2.13
2019-01-31T13:34:10.573Z,2.20
2019-01-31T13:36:40.103Z,2.30
2019-01-31T13:39:14.710Z,4.27
2019-01-31T13:41:44.217Z,2.23
2019-01-31T13:44:13.788Z,2.20
2019-01-31T13:46:43.393Z,2.10
2019-01-31T13:49:12.996Z,2.17
2019-01-31T13:51:42.518Z,3.43
2019-01-31T13:54:12.152Z,1.67
2019-01-31T13:56:45.549Z,1.77
2019-01-31T13:59:12.973Z,2.50
2019-01-31T14:01:42.479Z,1.80
2019-01-31T14:04:12.326Z,4.23
2019-01-31T14:06:41.853Z,2.33
2019-01-31T14:09:11.471Z,2.43
2019-01-31T14:11:41.330Z,4.50
2019-01-31T14:14:10.896Z,2.93
2019-01-31T14:16:47.341Z,3.33
2019-01-31T14:19:11.598Z,4.60
2019-01-31T14:21:43.981Z,5.90
2019-01-31T14:24:12.433Z,5.37
2019-01-31T14:26:41.990Z,3.60
2019-01-31T14:29:11.744Z,2.73
2019-01-31T14:31:41.322Z,3.07
2019-01-31T14:34:10.940Z,2.80
2019-01-31T14:36:40.512Z,2.57
2019-01-31T14:39:10.726Z,2.60
2019-01-31T14:41:40.519Z,2.17
2019-01-31T14:44:19.883Z,2.53
2019-01-31T14:46:41.277Z,1.43
2019-01-31T14:49:10.819Z,1.60
2019-01-31T14:51:40.438Z,1.90
2019-01-31T14:54:09.970Z,1.73
2019-01-31T14:56:39.522Z,1.60
2019-01-31T14:59:09.064Z,4.53
2019-01-31T15:01:38.593Z,2.97
2019-01-31T15:04:08.171Z,2.67
2019-01-31T15:06:37.782Z,1.97
2019-01-31T15:09:09.345Z,1.90
2019-01-31T15:11:38.861Z,2.23
2019-01-31T15:14:08.394Z,2.83
2019-01-31T15:16:37.967Z,1.53
2019-01-31T15:19:07.517Z,1.80
2019-01-31T15:21:37.141Z,2.57
2019-01-31T15:24:06.812Z,1.77
2019-01-31T15:26:36.416Z,2.67
2019-01-31T15:29:06.157Z,2.30
2019-01-31T15:31:35.719Z,1.87
2019-01-31T15:34:05.591Z,2.17
2019-01-31T15:36:35.232Z,2.33
2019-01-31T15:39:07.462Z,2.23
2019-01-31T15:41:37.033Z,3.43
2019-01-31T15:44:06.575Z,3.03
2019-01-31T15:46:36.147Z,1.87
2019-01-31T15:49:05.691Z,2.67
2019-01-31T15:51:35.334Z,2.23
2019-01-31T15:54:05.683Z,5.77
2019-01-31T15:56:35.483Z,5.17
2019-01-31T15:59:05.285Z,4.67
2019-01-31T16:01:34.819Z,3.40
2019-01-31T16:04:04.515Z,4.57
2019-01-31T16:06:34.106Z,3.80
2019-01-31T16:09:05.284Z,5.10
2019-01-31T16:11:34.838Z,4.70
2019-01-31T16:14:04.675Z,4.20
2019-01-31T16:16:34.317Z,3.80
2019-01-31T16:19:03.898Z,4.93
2019-01-31T16:21:33.551Z,6.20
2019-01-31T16:24:03.121Z,6.63
2019-01-31T16:26:32.745Z,10.67
2019-01-31T16:29:02.278Z,42.60
2019-01-31T16:31:33.369Z,40.83
2019-01-31T16:34:02.930Z,30.40
2019-01-31T16:36:32.482Z,28.13
2019-01-31T16:39:02.022Z,46.70
2019-01-31T16:41:31.627Z,38.17
2019-01-31T16:44:01.192Z,28.13
2019-01-31T16:46:30.861Z,27.00
2019-01-31T16:49:00.569Z,22.43
2019-01-31T16:51:30.062Z,16.83
2019-01-31T16:53:59.638Z,16.77
2019-01-31T16:56:29.259Z,13.17
2019-01-31T16:58:58.905Z,9.50
2019-01-31T17:01:28.984Z,8.10
2019-01-31T17:03:58.715Z,28.00
2019-01-31T17:06:28.498Z,17.93
2019-01-31T17:08:58.118Z,7.60
2019-01-31T17:11:28.095Z,7.40
2019-01-31T17:13:57.937Z,7.87
2019-01-31T17:16:27.529Z,8.70
2019-01-31T17:18:57.148Z,9.60
2019-01-31T17:21:26.769Z,10.07
2019-01-31T17:23:56.387Z,28.10
2019-01-31T17:26:26.080Z,22.70
2019-01-31T17:28:55.673Z,15.20
2019-01-31T17:31:25.487Z,12.17
2019-01-31T17:33:55.036Z,12.17
2019-01-31T17:36:24.592Z,9.23
2019-01-31T17:38:54.200Z,12.97
2019-01-31T17:41:23.850Z,10.20
2019-01-31T17:43:53.409Z,14.10
2019-01-31T17:46:23.079Z,16.97
2019-01-31T17:48:52.669Z,13.17
2019-01-31T17:51:22.196Z,13.60
2019-01-31T17:53:51.880Z,15.90
2019-01-31T17:56:21.406Z,19.93
2019-01-31T17:58:51.011Z,13.13
2019-01-31T18:01:20.574Z,12.50
2019-01-31T18:03:50.123Z,13.53
2019-01-31T18:06:19.972Z,15.00
2019-01-31T18:08:49.535Z,14.87
2019-01-31T18:11:19.790Z,19.13
2019-01-31T18:13:49.435Z,20.37
2019-01-31T18:16:19.260Z,17.77
2019-01-31T18:18:48.833Z,19.63
2019-01-31T18:21:18.381Z,16.93
2019-01-31T18:23:48.035Z,21.77
2019-01-31T18:26:17.575Z,21.30
2019-01-31T18:28:47.247Z,19.77
2019-01-31T18:31:16.832Z,21.93
2019-01-31T18:33:46.362Z,17.43
2019-01-31T18:36:16.099Z,20.57
2019-01-31T18:38:45.656Z,18.37
2019-01-31T18:41:15.363Z,15.40
2019-01-31T18:43:44.960Z,16.70
2019-01-31T18:46:14.530Z,18.80
2019-01-31T18:48:44.107Z,16.07
2019-01-31T18:51:16.039Z,20.37
2019-01-31T18:53:44.924Z,18.83
2019-01-31T18:56:14.440Z,20.17
2019-01-31T18:58:44.079Z,20.40
2019-01-31T19:01:13.754Z,16.77
2019-01-31T19:03:43.434Z,16.17
2019-01-31T19:06:13.171Z,14.47
2019-01-31T19:08:42.890Z,13.23
2019-01-31T19:11:12.438Z,14.23
2019-01-31T19:13:43.306Z,16.87
2019-01-31T19:16:12.880Z,13.10
2019-01-31T19:18:42.491Z,14.67
2019-01-31T19:21:14.014Z,17.63
2019-01-31T19:23:43.611Z,19.73
2019-01-31T19:26:13.181Z,18.57
2019-01-31T19:28:42.818Z,17.27
2019-01-31T19:31:12.384Z,17.37
2019-01-31T19:33:42.024Z,14.90
2019-01-31T19:36:11.626Z,16.20
2019-01-31T19:38:41.187Z,11.70
2019-01-31T19:41:10.780Z,12.13
2019-01-31T19:43:40.391Z,12.93
2019-01-31T19:46:16.521Z,12.53
2019-01-31T19:48:41.167Z,12.97
2019-01-31T19:51:11.046Z,14.13
2019-01-31T19:53:43.559Z,12.20
2019-01-31T19:56:13.159Z,12.60
2019-01-31T19:58:42.712Z,13.10
2019-01-31T20:01:12.427Z,12.30
2019-01-31T20:03:42.152Z,13.57
2019-01-31T20:06:11.855Z,15.57
2019-01-31T20:08:41.519Z,18.30
2019-01-31T20:11:11.051Z,19.30
2019-01-31T20:13:40.638Z,16.03
2019-01-31T20:16:10.235Z,13.80
2019-01-31T20:18:39.808Z,16.37
2019-01-31T20:21:09.364Z,16.47
2019-01-31T20:23:41.990Z,14.00
2019-01-31T20:26:11.661Z,12.47
2019-01-31T20:28:41.352Z,13.23
2019-01-31T20:31:13.394Z,13.80
2019-01-31T20:33:43.072Z,14.27
2019-01-31T20:36:12.679Z,12.40
2019-01-31T20:38:42.279Z,13.37
2019-01-31T20:41:11.915Z,15.60
2019-01-31T20:43:41.460Z,13.40
2019-01-31T20:46:11.057Z,12.97
2019-01-31T20:48:41.351Z,15.47
2019-01-31T20:51:12.627Z,15.23
2019-01-31T20:53:42.129Z,15.27
2019-01-31T20:56:11.698Z,16.90
2019-01-31T20:58:41.304Z,18.67
2019-01-31T21:01:11.056Z,15.83
2019-01-31T21:03:40.579Z,16.57
2019-01-31T21:06:10.326Z,19.07
2019-01-31T21:08:39.914Z,17.47
2019-01-31T21:11:09.493Z,18.27
2019-01-31T21:13:39.030Z,20.40
2019-01-31T21:16:08.622Z,19.77
2019-01-31T21:18:39.148Z,21.97
2019-01-31T21:21:08.741Z,21.13
2019-01-31T21:23:38.353Z,23.97
2019-01-31T21:26:08.051Z,17.93
2019-01-31T21:28:37.658Z,22.23
2019-01-31T21:31:07.263Z,23.07
2019-01-31T21:33:36.865Z,21.93
2019-01-31T21:36:06.547Z,19.20
2019-01-31T21:38:36.484Z,18.90
2019-01-31T21:41:06.224Z,21.70
2019-01-31T21:43:35.732Z,21.00
2019-01-31T21:46:05.448Z,21.57
2019-01-31T21:48:35.022Z,20.83
2019-01-31T21:51:04.715Z,20.70
2019-01-31T21:53:36.479Z,19.50
2019-01-31T21:56:06.144Z,20.23
2019-01-31T21:58:35.744Z,18.73
2019-01-31T22:01:05.406Z,17.70
2019-01-31T22:03:35.058Z,24.10
2019-01-31T22:06:04.630Z,18.80
2019-01-31T22:08:34.754Z,17.03
2019-01-31T22:11:04.737Z,19.00
2019-01-31T22:13:34.766Z,17.30
2019-01-31T22:16:04.693Z,17.37
2019-01-31T22:18:34.735Z,17.20
2019-01-31T22:21:04.508Z,18.13
2019-01-31T22:23:34.027Z,18.43
2019-01-31T22:26:03.664Z,17.43
2019-01-31T22:28:33.203Z,16.20
2019-01-31T22:31:02.837Z,20.70
2019-01-31T22:33:32.378Z,18.20
2019-01-31T22:36:01.998Z,20.07
2019-01-31T22:38:31.550Z,16.87
2019-01-31T22:41:02.286Z,16.53
2019-01-31T22:43:31.904Z,18.00
2019-01-31T22:46:01.503Z,17.00
2019-01-31T22:48:31.069Z,21.00
2019-01-31T22:51:00.662Z,17.57
2019-01-31T22:53:30.261Z,19.30
2019-01-31T22:55:59.959Z,16.87
2019-01-31T22:58:29.634Z,16.07
2019-01-31T23:01:40.448Z,15.57
2019-01-31T23:04:10.243Z,17.70
2019-01-31T23:06:39.794Z,16.57
2019-01-31T23:09:11.852Z,16.43
2019-01-31T23:11:41.478Z,16.57
2019-01-31T23:14:11.127Z,15.73
2019-01-31T23:16:40.757Z,15.73
2019-01-31T23:19:10.303Z,16.20
2019-01-31T23:21:40.207Z,15.97
2019-01-31T23:24:10.128Z,18.27
2019-01-31T23:26:39.671Z,15.77
2019-01-31T23:29:09.250Z,18.10
2019-01-31T23:31:38.786Z,16.90
2019-01-31T23:34:08.450Z,18.30
2019-01-31T23:36:38.003Z,15.33
2019-01-31T23:39:10.768Z,15.27
2019-01-31T23:41:40.314Z,15.20
2019-01-31T23:44:09.958Z,15.80
2019-01-31T23:46:39.648Z,15.93
2019-01-31T23:49:09.203Z,18.47
2019-01-31T23:51:38.762Z,17.00
2019-01-31T23:54:08.334Z,16.07
2019-01-31T23:56:37.965Z,15.07
2019-01-31T23:59:07.518Z,16.70
